sensor_id;sensor_type;location;lat;lon;timestamp;P1;durP1;ratioP1;P2;durP2;ratioP2
60665;SDS011;59128;44.642;21.188;2023-11-22T00:00:20;14.15;;;12.05;;
60665;SDS011;59128;44.642;21.188;2023-11-22T00:02:46;14.75;;;12.60;;
60665;SDS011;59128;44.642;21.188;2023-11-22T00:05:13;16.38;;;12.90;;
60665;SDS011;59128;44.642;21.188;2023-11-22T00:07:39;15.57;;;12.53;;
60665;SDS011;59128;44.642;21.188;2023-11-22T00:10:05;16.92;;;13.30;;
60665;SDS011;59128;44.642;21.188;2023-11-22T00:12:33;16.70;;;14.20;;
60665;SDS011;59128;44.642;21.188;2023-11-22T00:15:06;16.08;;;13.85;;
60665;SDS011;59128;44.642;21.188;2023-11-22T00:17:33;16.27;;;14.57;;
60665;SDS011;59128;44.642;21.188;2023-11-22T00:20:00;15.05;;;13.45;;
60665;SDS011;59128;44.642;21.188;2023-11-22T00:22:30;14.48;;;12.90;;
60665;SDS011;59128;44.642;21.188;2023-11-22T00:24:57;13.25;;;11.68;;
60665;SDS011;59128;44.642;21.188;2023-11-22T00:27:23;13.80;;;11.60;;
60665;SDS011;59128;44.642;21.188;2023-11-22T00:29:50;12.13;;;10.88;;
60665;SDS011;59128;44.642;21.188;2023-11-22T00:32:17;13.43;;;12.05;;
60665;SDS011;59128;44.642;21.188;2023-11-22T00:34:44;14.68;;;12.52;;
60665;SDS011;59128;44.642;21.188;2023-11-22T00:37:10;12.77;;;11.10;;
60665;SDS011;59128;44.642;21.188;2023-11-22T00:39:36;13.80;;;11.63;;
60665;SDS011;59128;44.642;21.188;2023-11-22T00:42:02;12.15;;;10.90;;
60665;SDS011;59128;44.642;21.188;2023-11-22T00:44:29;11.50;;;10.30;;
60665;SDS011;59128;44.642;21.188;2023-11-22T00:46:55;10.95;;;9.77;;
60665;SDS011;59128;44.642;21.188;2023-11-22T00:49:22;10.50;;;8.70;;
60665;SDS011;59128;44.642;21.188;2023-11-22T00:51:48;10.45;;;8.65;;
60665;SDS011;59128;44.642;21.188;2023-11-22T00:54:15;9.30;;;8.25;;
60665;SDS011;59128;44.642;21.188;2023-11-22T00:56:41;8.90;;;7.63;;
60665;SDS011;59128;44.642;21.188;2023-11-22T00:59:08;8.80;;;7.30;;
60665;SDS011;59128;44.642;21.188;2023-11-22T01:01:34;10.27;;;8.03;;
60665;SDS011;59128;44.642;21.188;2023-11-22T01:04:00;7.65;;;6.93;;
60665;SDS011;59128;44.642;21.188;2023-11-22T01:06:26;8.50;;;7.43;;
60665;SDS011;59128;44.642;21.188;2023-11-22T01:08:52;11.00;;;9.00;;
60665;SDS011;59128;44.642;21.188;2023-11-22T01:11:18;11.98;;;10.65;;
60665;SDS011;59128;44.642;21.188;2023-11-22T01:13:44;15.40;;;12.60;;
60665;SDS011;59128;44.642;21.188;2023-11-22T01:16:11;14.25;;;12.77;;
60665;SDS011;59128;44.642;21.188;2023-11-22T01:18:41;13.55;;;11.95;;
60665;SDS011;59128;44.642;21.188;2023-11-22T01:21:08;14.80;;;12.95;;
60665;SDS011;59128;44.642;21.188;2023-11-22T01:23:34;15.60;;;14.00;;
60665;SDS011;59128;44.642;21.188;2023-11-22T01:26:00;14.23;;;12.07;;
60665;SDS011;59128;44.642;21.188;2023-11-22T01:28:28;12.20;;;10.60;;
60665;SDS011;59128;44.642;21.188;2023-11-22T01:30:59;11.50;;;10.40;;
60665;SDS011;59128;44.642;21.188;2023-11-22T01:33:25;12.30;;;10.60;;
60665;SDS011;59128;44.642;21.188;2023-11-22T01:35:52;13.30;;;11.53;;
60665;SDS011;59128;44.642;21.188;2023-11-22T01:38:18;11.23;;;9.60;;
60665;SDS011;59128;44.642;21.188;2023-11-22T01:40:44;11.50;;;10.23;;
60665;SDS011;59128;44.642;21.188;2023-11-22T01:43:18;14.38;;;12.63;;
60665;SDS011;59128;44.642;21.188;2023-11-22T01:45:44;13.55;;;12.15;;
60665;SDS011;59128;44.642;21.188;2023-11-22T01:48:10;12.48;;;10.73;;
60665;SDS011;59128;44.642;21.188;2023-11-22T01:50:37;11.73;;;9.90;;
60665;SDS011;59128;44.642;21.188;2023-11-22T01:53:05;15.52;;;10.70;;
60665;SDS011;59128;44.642;21.188;2023-11-22T01:55:31;14.07;;;11.57;;
60665;SDS011;59128;44.642;21.188;2023-11-22T01:57:57;12.85;;;10.95;;
60665;SDS011;59128;44.642;21.188;2023-11-22T02:00:24;14.23;;;11.65;;
60665;SDS011;59128;44.642;21.188;2023-11-22T02:02:52;12.57;;;10.90;;
60665;SDS011;59128;44.642;21.188;2023-11-22T02:05:18;15.20;;;11.07;;
60665;SDS011;59128;44.642;21.188;2023-11-22T02:07:44;12.43;;;10.30;;
60665;SDS011;59128;44.642;21.188;2023-11-22T02:10:12;13.63;;;12.02;;
60665;SDS011;59128;44.642;21.188;2023-11-22T02:12:38;13.77;;;11.68;;
60665;SDS011;59128;44.642;21.188;2023-11-22T02:15:05;13.73;;;11.45;;
60665;SDS011;59128;44.642;21.188;2023-11-22T02:17:31;13.32;;;11.00;;
60665;SDS011;59128;44.642;21.188;2023-11-22T02:19:59;14.52;;;11.13;;
60665;SDS011;59128;44.642;21.188;2023-11-22T02:22:25;10.02;;;8.85;;
60665;SDS011;59128;44.642;21.188;2023-11-22T02:24:51;9.10;;;7.75;;
60665;SDS011;59128;44.642;21.188;2023-11-22T02:27:17;8.23;;;7.28;;
60665;SDS011;59128;44.642;21.188;2023-11-22T02:29:44;8.90;;;7.32;;
60665;SDS011;59128;44.642;21.188;2023-11-22T02:32:10;8.48;;;6.80;;
60665;SDS011;59128;44.642;21.188;2023-11-22T02:34:36;7.03;;;6.32;;
60665;SDS011;59128;44.642;21.188;2023-11-22T02:37:02;6.40;;;5.65;;
60665;SDS011;59128;44.642;21.188;2023-11-22T02:39:35;6.53;;;5.87;;
60665;SDS011;59128;44.642;21.188;2023-11-22T02:42:03;7.47;;;6.20;;
60665;SDS011;59128;44.642;21.188;2023-11-22T02:44:29;7.10;;;5.80;;
60665;SDS011;59128;44.642;21.188;2023-11-22T02:46:55;6.68;;;5.68;;
60665;SDS011;59128;44.642;21.188;2023-11-22T02:49:22;6.50;;;5.77;;
60665;SDS011;59128;44.642;21.188;2023-11-22T02:51:49;6.88;;;6.13;;
60665;SDS011;59128;44.642;21.188;2023-11-22T02:54:15;7.17;;;6.20;;
60665;SDS011;59128;44.642;21.188;2023-11-22T02:56:41;6.57;;;5.75;;
60665;SDS011;59128;44.642;21.188;2023-11-22T02:59:07;5.93;;;5.28;;
60665;SDS011;59128;44.642;21.188;2023-11-22T03:01:38;6.57;;;5.90;;
60665;SDS011;59128;44.642;21.188;2023-11-22T03:04:08;7.03;;;5.55;;
60665;SDS011;59128;44.642;21.188;2023-11-22T03:06:34;7.30;;;6.20;;
60665;SDS011;59128;44.642;21.188;2023-11-22T03:09:01;6.85;;;6.13;;
60665;SDS011;59128;44.642;21.188;2023-11-22T03:11:27;8.30;;;6.75;;
60665;SDS011;59128;44.642;21.188;2023-11-22T03:13:53;7.25;;;6.53;;
60665;SDS011;59128;44.642;21.188;2023-11-22T03:16:19;7.97;;;6.82;;
60665;SDS011;59128;44.642;21.188;2023-11-22T03:18:45;7.90;;;6.75;;
60665;SDS011;59128;44.642;21.188;2023-11-22T03:21:11;7.68;;;6.43;;
60665;SDS011;59128;44.642;21.188;2023-11-22T03:23:37;6.45;;;5.65;;
60665;SDS011;59128;44.642;21.188;2023-11-22T03:26:05;6.07;;;5.38;;
60665;SDS011;59128;44.642;21.188;2023-11-22T03:28:31;7.15;;;5.40;;
60665;SDS011;59128;44.642;21.188;2023-11-22T03:30:58;6.65;;;5.45;;
60665;SDS011;59128;44.642;21.188;2023-11-22T03:33:24;5.43;;;4.77;;
60665;SDS011;59128;44.642;21.188;2023-11-22T03:35:51;5.22;;;4.55;;
60665;SDS011;59128;44.642;21.188;2023-11-22T03:38:17;4.85;;;4.35;;
60665;SDS011;59128;44.642;21.188;2023-11-22T03:40:43;4.60;;;4.18;;
60665;SDS011;59128;44.642;21.188;2023-11-22T03:43:10;5.20;;;4.50;;
60665;SDS011;59128;44.642;21.188;2023-11-22T03:45:37;5.07;;;4.55;;
60665;SDS011;59128;44.642;21.188;2023-11-22T03:48:03;6.07;;;5.30;;
60665;SDS011;59128;44.642;21.188;2023-11-22T03:50:29;5.70;;;5.03;;
60665;SDS011;59128;44.642;21.188;2023-11-22T03:52:55;6.88;;;5.95;;
60665;SDS011;59128;44.642;21.188;2023-11-22T03:55:21;6.28;;;5.68;;
60665;SDS011;59128;44.642;21.188;2023-11-22T03:57:48;7.13;;;6.28;;
60665;SDS011;59128;44.642;21.188;2023-11-22T04:00:14;8.03;;;6.13;;
60665;SDS011;59128;44.642;21.188;2023-11-22T04:02:41;6.82;;;6.13;;
60665;SDS011;59128;44.642;21.188;2023-11-22T04:05:09;6.63;;;5.63;;
60665;SDS011;59128;44.642;21.188;2023-11-22T04:07:37;5.95;;;5.35;;
60665;SDS011;59128;44.642;21.188;2023-11-22T04:10:04;5.85;;;5.28;;
60665;SDS011;59128;44.642;21.188;2023-11-22T04:12:31;6.63;;;5.68;;
60665;SDS011;59128;44.642;21.188;2023-11-22T04:14:57;5.25;;;4.68;;
60665;SDS011;59128;44.642;21.188;2023-11-22T04:17:24;5.40;;;4.90;;
60665;SDS011;59128;44.642;21.188;2023-11-22T04:19:50;5.30;;;4.80;;
60665;SDS011;59128;44.642;21.188;2023-11-22T04:22:16;5.97;;;5.35;;
60665;SDS011;59128;44.642;21.188;2023-11-22T04:24:42;6.33;;;5.73;;
60665;SDS011;59128;44.642;21.188;2023-11-22T04:27:08;6.10;;;5.50;;
60665;SDS011;59128;44.642;21.188;2023-11-22T04:29:34;5.85;;;5.20;;
60665;SDS011;59128;44.642;21.188;2023-11-22T04:32:00;6.00;;;5.40;;
60665;SDS011;59128;44.642;21.188;2023-11-22T04:34:26;5.53;;;5.03;;
60665;SDS011;59128;44.642;21.188;2023-11-22T04:36:53;5.90;;;5.28;;
60665;SDS011;59128;44.642;21.188;2023-11-22T04:39:19;5.85;;;5.20;;
60665;SDS011;59128;44.642;21.188;2023-11-22T04:41:45;5.32;;;4.82;;
60665;SDS011;59128;44.642;21.188;2023-11-22T04:44:11;5.78;;;5.20;;
60665;SDS011;59128;44.642;21.188;2023-11-22T04:46:37;5.60;;;5.10;;
60665;SDS011;59128;44.642;21.188;2023-11-22T04:49:03;6.75;;;5.38;;
60665;SDS011;59128;44.642;21.188;2023-11-22T04:51:29;5.85;;;5.35;;
60665;SDS011;59128;44.642;21.188;2023-11-22T04:53:57;5.63;;;5.13;;
60665;SDS011;59128;44.642;21.188;2023-11-22T04:56:23;6.00;;;5.50;;
60665;SDS011;59128;44.642;21.188;2023-11-22T04:58:49;6.57;;;5.97;;
60665;SDS011;59128;44.642;21.188;2023-11-22T05:01:15;6.70;;;6.00;;
60665;SDS011;59128;44.642;21.188;2023-11-22T05:03:41;7.35;;;6.47;;
60665;SDS011;59128;44.642;21.188;2023-11-22T05:06:08;6.32;;;5.72;;
60665;SDS011;59128;44.642;21.188;2023-11-22T05:08:34;6.78;;;5.82;;
60665;SDS011;59128;44.642;21.188;2023-11-22T05:11:00;6.80;;;5.95;;
60665;SDS011;59128;44.642;21.188;2023-11-22T05:13:26;6.20;;;5.60;;
60665;SDS011;59128;44.642;21.188;2023-11-22T05:15:52;7.13;;;6.43;;
60665;SDS011;59128;44.642;21.188;2023-11-22T05:18:18;7.18;;;6.10;;
60665;SDS011;59128;44.642;21.188;2023-11-22T05:20:44;6.85;;;6.15;;
60665;SDS011;59128;44.642;21.188;2023-11-22T05:23:13;7.85;;;6.97;;
60665;SDS011;59128;44.642;21.188;2023-11-22T05:25:39;8.00;;;6.80;;
60665;SDS011;59128;44.642;21.188;2023-11-22T05:28:05;7.43;;;6.63;;
60665;SDS011;59128;44.642;21.188;2023-11-22T05:30:31;8.17;;;6.40;;
60665;SDS011;59128;44.642;21.188;2023-11-22T05:32:57;7.45;;;6.63;;
60665;SDS011;59128;44.642;21.188;2023-11-22T05:35:23;7.80;;;6.38;;
60665;SDS011;59128;44.642;21.188;2023-11-22T05:37:49;8.02;;;7.22;;
60665;SDS011;59128;44.642;21.188;2023-11-22T05:40:15;16.63;;;12.43;;
60665;SDS011;59128;44.642;21.188;2023-11-22T05:42:41;13.02;;;10.73;;
60665;SDS011;59128;44.642;21.188;2023-11-22T05:45:07;10.25;;;8.95;;
60665;SDS011;59128;44.642;21.188;2023-11-22T05:47:34;9.97;;;8.63;;
60665;SDS011;59128;44.642;21.188;2023-11-22T05:50:00;7.60;;;6.40;;
60665;SDS011;59128;44.642;21.188;2023-11-22T05:52:26;6.83;;;5.90;;
60665;SDS011;59128;44.642;21.188;2023-11-22T05:54:53;8.20;;;6.63;;
60665;SDS011;59128;44.642;21.188;2023-11-22T05:57:19;6.63;;;6.03;;
60665;SDS011;59128;44.642;21.188;2023-11-22T05:59:45;6.63;;;6.00;;
60665;SDS011;59128;44.642;21.188;2023-11-22T06:02:11;6.68;;;6.00;;
60665;SDS011;59128;44.642;21.188;2023-11-22T06:04:37;7.28;;;6.57;;
60665;SDS011;59128;44.642;21.188;2023-11-22T06:07:04;6.53;;;5.85;;
60665;SDS011;59128;44.642;21.188;2023-11-22T06:09:30;6.25;;;5.65;;
60665;SDS011;59128;44.642;21.188;2023-11-22T06:11:56;7.17;;;6.40;;
60665;SDS011;59128;44.642;21.188;2023-11-22T06:14:22;10.23;;;7.22;;
60665;SDS011;59128;44.642;21.188;2023-11-22T06:16:48;8.15;;;6.70;;
60665;SDS011;59128;44.642;21.188;2023-11-22T06:19:14;7.23;;;6.40;;
60665;SDS011;59128;44.642;21.188;2023-11-22T06:21:40;9.60;;;8.10;;
60665;SDS011;59128;44.642;21.188;2023-11-22T06:24:06;11.38;;;10.18;;
60665;SDS011;59128;44.642;21.188;2023-11-22T06:26:34;5.80;;;5.30;;
60665;SDS011;59128;44.642;21.188;2023-11-22T06:29:00;6.90;;;5.53;;
60665;SDS011;59128;44.642;21.188;2023-11-22T06:31:27;6.93;;;6.20;;
60665;SDS011;59128;44.642;21.188;2023-11-22T06:33:53;6.65;;;6.00;;
60665;SDS011;59128;44.642;21.188;2023-11-22T06:36:20;7.33;;;5.50;;
60665;SDS011;59128;44.642;21.188;2023-11-22T06:38:46;7.55;;;6.43;;
60665;SDS011;59128;44.642;21.188;2023-11-22T06:41:12;7.45;;;6.65;;
60665;SDS011;59128;44.642;21.188;2023-11-22T06:43:38;8.13;;;6.93;;
60665;SDS011;59128;44.642;21.188;2023-11-22T06:46:04;8.35;;;7.55;;
60665;SDS011;59128;44.642;21.188;2023-11-22T06:48:31;8.25;;;7.40;;
60665;SDS011;59128;44.642;21.188;2023-11-22T06:50:58;11.02;;;8.93;;
60665;SDS011;59128;44.642;21.188;2023-11-22T06:53:24;10.25;;;8.73;;
60665;SDS011;59128;44.642;21.188;2023-11-22T06:55:51;10.57;;;9.10;;
60665;SDS011;59128;44.642;21.188;2023-11-22T06:58:17;12.73;;;11.02;;
60665;SDS011;59128;44.642;21.188;2023-11-22T07:00:44;12.60;;;10.75;;
60665;SDS011;59128;44.642;21.188;2023-11-22T07:03:10;12.82;;;10.82;;
60665;SDS011;59128;44.642;21.188;2023-11-22T07:05:37;12.70;;;11.40;;
60665;SDS011;59128;44.642;21.188;2023-11-22T07:08:03;12.93;;;10.90;;
60665;SDS011;59128;44.642;21.188;2023-11-22T07:10:29;12.85;;;10.82;;
60665;SDS011;59128;44.642;21.188;2023-11-22T07:12:59;11.55;;;10.18;;
60665;SDS011;59128;44.642;21.188;2023-11-22T07:15:28;14.88;;;10.63;;
60665;SDS011;59128;44.642;21.188;2023-11-22T07:17:55;12.07;;;10.05;;
60665;SDS011;59128;44.642;21.188;2023-11-22T07:20:21;11.80;;;8.73;;
60665;SDS011;59128;44.642;21.188;2023-11-22T07:22:48;8.63;;;7.20;;
60665;SDS011;59128;44.642;21.188;2023-11-22T07:25:20;7.15;;;6.25;;
60665;SDS011;59128;44.642;21.188;2023-11-22T07:27:50;6.72;;;6.03;;
60665;SDS011;59128;44.642;21.188;2023-11-22T07:30:16;7.10;;;6.40;;
60665;SDS011;59128;44.642;21.188;2023-11-22T07:32:45;7.03;;;6.30;;
60665;SDS011;59128;44.642;21.188;2023-11-22T07:35:11;7.05;;;6.07;;
60665;SDS011;59128;44.642;21.188;2023-11-22T07:37:37;6.47;;;5.40;;
60665;SDS011;59128;44.642;21.188;2023-11-22T07:40:09;6.88;;;6.18;;
60665;SDS011;59128;44.642;21.188;2023-11-22T07:42:38;6.68;;;6.07;;
60665;SDS011;59128;44.642;21.188;2023-11-22T07:45:04;6.60;;;5.87;;
60665;SDS011;59128;44.642;21.188;2023-11-22T07:47:31;6.28;;;5.68;;
60665;SDS011;59128;44.642;21.188;2023-11-22T07:49:57;6.63;;;5.95;;
60665;SDS011;59128;44.642;21.188;2023-11-22T07:52:23;8.53;;;7.63;;
60665;SDS011;59128;44.642;21.188;2023-11-22T07:54:55;9.48;;;7.70;;
60665;SDS011;59128;44.642;21.188;2023-11-22T07:57:21;9.90;;;8.82;;
60665;SDS011;59128;44.642;21.188;2023-11-22T07:59:48;11.65;;;9.55;;
60665;SDS011;59128;44.642;21.188;2023-11-22T08:02:14;11.50;;;10.20;;
60665;SDS011;59128;44.642;21.188;2023-11-22T08:04:44;13.73;;;10.85;;
60665;SDS011;59128;44.642;21.188;2023-11-22T08:07:10;13.27;;;11.15;;
60665;SDS011;59128;44.642;21.188;2023-11-22T08:09:43;13.15;;;11.07;;
60665;SDS011;59128;44.642;21.188;2023-11-22T08:12:09;12.82;;;11.18;;
60665;SDS011;59128;44.642;21.188;2023-11-22T08:14:39;13.33;;;11.07;;
60665;SDS011;59128;44.642;21.188;2023-11-22T08:17:09;13.15;;;10.98;;
60665;SDS011;59128;44.642;21.188;2023-11-22T08:19:37;12.82;;;9.95;;
60665;SDS011;59128;44.642;21.188;2023-11-22T08:22:05;11.45;;;9.35;;
60665;SDS011;59128;44.642;21.188;2023-11-22T08:24:31;10.77;;;8.77;;
60665;SDS011;59128;44.642;21.188;2023-11-22T08:26:57;11.52;;;9.38;;
60665;SDS011;59128;44.642;21.188;2023-11-22T08:29:24;10.75;;;8.75;;
60665;SDS011;59128;44.642;21.188;2023-11-22T08:31:50;9.98;;;8.95;;
60665;SDS011;59128;44.642;21.188;2023-11-22T08:34:16;11.70;;;9.80;;
60665;SDS011;59128;44.642;21.188;2023-11-22T08:36:42;10.50;;;9.20;;
60665;SDS011;59128;44.642;21.188;2023-11-22T08:39:08;9.68;;;8.48;;
60665;SDS011;59128;44.642;21.188;2023-11-22T08:41:35;9.95;;;8.88;;
60665;SDS011;59128;44.642;21.188;2023-11-22T08:44:02;10.70;;;9.00;;
60665;SDS011;59128;44.642;21.188;2023-11-22T08:46:29;11.32;;;9.45;;
60665;SDS011;59128;44.642;21.188;2023-11-22T08:48:56;12.20;;;9.50;;
60665;SDS011;59128;44.642;21.188;2023-11-22T08:51:22;12.30;;;10.93;;
60665;SDS011;59128;44.642;21.188;2023-11-22T08:53:48;14.10;;;12.35;;
60665;SDS011;59128;44.642;21.188;2023-11-22T08:56:14;12.40;;;10.73;;
60665;SDS011;59128;44.642;21.188;2023-11-22T08:58:40;11.27;;;9.40;;
60665;SDS011;59128;44.642;21.188;2023-11-22T09:01:07;11.77;;;10.50;;
60665;SDS011;59128;44.642;21.188;2023-11-22T09:03:34;11.60;;;10.40;;
60665;SDS011;59128;44.642;21.188;2023-11-22T09:06:00;10.75;;;9.65;;
60665;SDS011;59128;44.642;21.188;2023-11-22T09:08:28;10.75;;;9.65;;
60665;SDS011;59128;44.642;21.188;2023-11-22T09:10:55;10.57;;;9.13;;
60665;SDS011;59128;44.642;21.188;2023-11-22T09:13:21;10.57;;;9.02;;
60665;SDS011;59128;44.642;21.188;2023-11-22T09:15:47;10.30;;;8.20;;
60665;SDS011;59128;44.642;21.188;2023-11-22T09:18:13;8.20;;;7.40;;
60665;SDS011;59128;44.642;21.188;2023-11-22T09:20:39;8.23;;;7.43;;
60665;SDS011;59128;44.642;21.188;2023-11-22T09:23:09;9.10;;;8.05;;
60665;SDS011;59128;44.642;21.188;2023-11-22T09:25:37;9.63;;;8.68;;
60665;SDS011;59128;44.642;21.188;2023-11-22T09:28:04;11.57;;;10.37;;
60665;SDS011;59128;44.642;21.188;2023-11-22T09:30:35;14.20;;;12.73;;
60665;SDS011;59128;44.642;21.188;2023-11-22T09:35:33;25.83;;;23.10;;
60665;SDS011;59128;44.642;21.188;2023-11-22T09:38:05;31.55;;;27.98;;
60665;SDS011;59128;44.642;21.188;2023-11-22T09:40:41;25.83;;;22.98;;
60665;SDS011;59128;44.642;21.188;2023-11-22T09:43:08;24.95;;;22.30;;
60665;SDS011;59128;44.642;21.188;2023-11-22T09:45:35;24.40;;;20.48;;
60665;SDS011;59128;44.642;21.188;2023-11-22T09:48:03;19.17;;;17.17;;
60665;SDS011;59128;44.642;21.188;2023-11-22T09:50:34;17.27;;;15.45;;
60665;SDS011;59128;44.642;21.188;2023-11-22T09:53:02;18.15;;;15.55;;
60665;SDS011;59128;44.642;21.188;2023-11-22T09:55:31;18.47;;;16.03;;
60665;SDS011;59128;44.642;21.188;2023-11-22T09:58:01;17.17;;;15.38;;
60665;SDS011;59128;44.642;21.188;2023-11-22T10:00:28;16.75;;;15.05;;
60665;SDS011;59128;44.642;21.188;2023-11-22T10:02:55;17.23;;;15.30;;
60665;SDS011;59128;44.642;21.188;2023-11-22T10:05:22;17.50;;;15.40;;
60665;SDS011;59128;44.642;21.188;2023-11-22T10:07:49;19.05;;;17.00;;
60665;SDS011;59128;44.642;21.188;2023-11-22T10:10:15;18.73;;;16.77;;
60665;SDS011;59128;44.642;21.188;2023-11-22T10:12:43;19.10;;;17.10;;
60665;SDS011;59128;44.642;21.188;2023-11-22T10:15:13;21.00;;;18.83;;
60665;SDS011;59128;44.642;21.188;2023-11-22T10:17:40;20.17;;;17.75;;
60665;SDS011;59128;44.642;21.188;2023-11-22T10:20:07;19.70;;;17.57;;
60665;SDS011;59128;44.642;21.188;2023-11-22T10:22:45;22.67;;;18.52;;
60665;SDS011;59128;44.642;21.188;2023-11-22T10:25:15;23.23;;;19.42;;
60665;SDS011;59128;44.642;21.188;2023-11-22T10:27:44;22.60;;;19.58;;
60665;SDS011;59128;44.642;21.188;2023-11-22T10:30:10;25.02;;;21.23;;
60665;SDS011;59128;44.642;21.188;2023-11-22T10:32:37;22.52;;;20.23;;
60665;SDS011;59128;44.642;21.188;2023-11-22T10:35:05;23.17;;;20.67;;
60665;SDS011;59128;44.642;21.188;2023-11-22T10:37:32;21.05;;;18.85;;
60665;SDS011;59128;44.642;21.188;2023-11-22T10:39:59;21.05;;;18.75;;
60665;SDS011;59128;44.642;21.188;2023-11-22T10:42:25;19.63;;;17.52;;
60665;SDS011;59128;44.642;21.188;2023-11-22T10:44:56;20.63;;;18.08;;
60665;SDS011;59128;44.642;21.188;2023-11-22T10:47:22;19.48;;;17.38;;
60665;SDS011;59128;44.642;21.188;2023-11-22T10:49:48;23.85;;;20.25;;
60665;SDS011;59128;44.642;21.188;2023-11-22T10:52:15;21.23;;;18.33;;
60665;SDS011;59128;44.642;21.188;2023-11-22T10:54:44;19.13;;;17.08;;
60665;SDS011;59128;44.642;21.188;2023-11-22T10:57:16;19.02;;;16.85;;
60665;SDS011;59128;44.642;21.188;2023-11-22T10:59:44;18.30;;;16.48;;
60665;SDS011;59128;44.642;21.188;2023-11-22T11:02:17;19.90;;;17.80;;
60665;SDS011;59128;44.642;21.188;2023-11-22T11:04:47;19.13;;;17.17;;
60665;SDS011;59128;44.642;21.188;2023-11-22T11:07:14;17.25;;;15.45;;
60665;SDS011;59128;44.642;21.188;2023-11-22T11:09:41;17.15;;;15.07;;
60665;SDS011;59128;44.642;21.188;2023-11-22T11:12:08;16.65;;;14.95;;
60665;SDS011;59128;44.642;21.188;2023-11-22T11:14:35;20.92;;;18.70;;
60665;SDS011;59128;44.642;21.188;2023-11-22T11:17:01;18.13;;;16.30;;
60665;SDS011;59128;44.642;21.188;2023-11-22T11:19:27;17.80;;;15.93;;
60665;SDS011;59128;44.642;21.188;2023-11-22T11:21:55;20.40;;;16.92;;
60665;SDS011;59128;44.642;21.188;2023-11-22T11:24:22;17.77;;;15.52;;
60665;SDS011;59128;44.642;21.188;2023-11-22T11:26:49;17.52;;;15.63;;
60665;SDS011;59128;44.642;21.188;2023-11-22T11:29:32;18.70;;;16.65;;
60665;SDS011;59128;44.642;21.188;2023-11-22T11:31:58;18.77;;;16.20;;
60665;SDS011;59128;44.642;21.188;2023-11-22T11:34:24;18.93;;;16.43;;
60665;SDS011;59128;44.642;21.188;2023-11-22T11:36:53;18.98;;;16.45;;
60665;SDS011;59128;44.642;21.188;2023-11-22T11:39:24;19.63;;;17.52;;
60665;SDS011;59128;44.642;21.188;2023-11-22T11:41:51;19.15;;;17.05;;
60665;SDS011;59128;44.642;21.188;2023-11-22T11:44:17;21.60;;;18.77;;
60665;SDS011;59128;44.642;21.188;2023-11-22T11:46:44;21.95;;;18.67;;
60665;SDS011;59128;44.642;21.188;2023-11-22T11:49:13;21.45;;;17.80;;
60665;SDS011;59128;44.642;21.188;2023-11-22T11:51:39;18.50;;;16.60;;
60665;SDS011;59128;44.642;21.188;2023-11-22T11:54:06;19.08;;;17.05;;
60665;SDS011;59128;44.642;21.188;2023-11-22T11:56:34;18.80;;;16.50;;
60665;SDS011;59128;44.642;21.188;2023-11-22T11:59:00;17.98;;;16.08;;
60665;SDS011;59128;44.642;21.188;2023-11-22T12:01:27;17.17;;;15.43;;
60665;SDS011;59128;44.642;21.188;2023-11-22T12:04:00;16.23;;;14.52;;
60665;SDS011;59128;44.642;21.188;2023-11-22T12:06:28;15.05;;;13.57;;
60665;SDS011;59128;44.642;21.188;2023-11-22T12:08:56;14.75;;;13.25;;
60665;SDS011;59128;44.642;21.188;2023-11-22T12:11:23;14.65;;;13.00;;
60665;SDS011;59128;44.642;21.188;2023-11-22T12:13:49;15.30;;;13.80;;
60665;SDS011;59128;44.642;21.188;2023-11-22T12:16:17;15.85;;;14.30;;
60665;SDS011;59128;44.642;21.188;2023-11-22T12:18:44;17.55;;;14.95;;
60665;SDS011;59128;44.642;21.188;2023-11-22T12:21:11;16.10;;;13.70;;
60665;SDS011;59128;44.642;21.188;2023-11-22T12:23:38;14.30;;;12.80;;
60665;SDS011;59128;44.642;21.188;2023-11-22T12:26:04;14.20;;;12.73;;
60665;SDS011;59128;44.642;21.188;2023-11-22T12:28:30;16.27;;;14.03;;
60665;SDS011;59128;44.642;21.188;2023-11-22T12:31:07;16.05;;;14.35;;
60665;SDS011;59128;44.642;21.188;2023-11-22T12:33:34;15.38;;;13.88;;
60665;SDS011;59128;44.642;21.188;2023-11-22T12:36:01;20.47;;;17.20;;
60665;SDS011;59128;44.642;21.188;2023-11-22T12:38:28;17.42;;;15.52;;
60665;SDS011;59128;44.642;21.188;2023-11-22T12:40:58;17.67;;;15.77;;
60665;SDS011;59128;44.642;21.188;2023-11-22T12:43:24;18.45;;;16.27;;
60665;SDS011;59128;44.642;21.188;2023-11-22T12:46:03;16.88;;;14.85;;
60665;SDS011;59128;44.642;21.188;2023-11-22T12:48:31;18.40;;;15.60;;
60665;SDS011;59128;44.642;21.188;2023-11-22T12:50:58;19.37;;;16.40;;
60665;SDS011;59128;44.642;21.188;2023-11-22T12:53:24;18.55;;;15.13;;
60665;SDS011;59128;44.642;21.188;2023-11-22T12:55:53;16.50;;;14.15;;
60665;SDS011;59128;44.642;21.188;2023-11-22T12:58:19;18.30;;;13.77;;
60665;SDS011;59128;44.642;21.188;2023-11-22T13:00:46;20.60;;;14.18;;
60665;SDS011;59128;44.642;21.188;2023-11-22T13:03:12;18.50;;;13.03;;
60665;SDS011;59128;44.642;21.188;2023-11-22T13:05:39;17.20;;;12.90;;
60665;SDS011;59128;44.642;21.188;2023-11-22T13:08:05;21.20;;;15.15;;
60665;SDS011;59128;44.642;21.188;2023-11-22T13:10:31;24.37;;;16.77;;
60665;SDS011;59128;44.642;21.188;2023-11-22T13:12:57;24.13;;;17.52;;
60665;SDS011;59128;44.642;21.188;2023-11-22T13:15:24;21.70;;;16.52;;
60665;SDS011;59128;44.642;21.188;2023-11-22T13:17:52;16.33;;;14.63;;
60665;SDS011;59128;44.642;21.188;2023-11-22T13:20:21;17.33;;;15.15;;
60665;SDS011;59128;44.642;21.188;2023-11-22T13:22:47;16.65;;;14.93;;
60665;SDS011;59128;44.642;21.188;2023-11-22T13:25:13;14.38;;;12.98;;
60665;SDS011;59128;44.642;21.188;2023-11-22T13:27:41;15.07;;;13.55;;
60665;SDS011;59128;44.642;21.188;2023-11-22T13:30:07;16.45;;;14.75;;
60665;SDS011;59128;44.642;21.188;2023-11-22T13:32:33;14.77;;;13.27;;
60665;SDS011;59128;44.642;21.188;2023-11-22T13:35:00;15.32;;;13.73;;
60665;SDS011;59128;44.642;21.188;2023-11-22T13:37:26;16.60;;;14.90;;
60665;SDS011;59128;44.642;21.188;2023-11-22T13:39:53;14.80;;;13.30;;
60665;SDS011;59128;44.642;21.188;2023-11-22T13:42:19;16.27;;;14.43;;
60665;SDS011;59128;44.642;21.188;2023-11-22T13:44:45;16.65;;;14.35;;
60665;SDS011;59128;44.642;21.188;2023-11-22T13:47:12;16.63;;;14.93;;
60665;SDS011;59128;44.642;21.188;2023-11-22T13:49:41;18.65;;;16.50;;
60665;SDS011;59128;44.642;21.188;2023-11-22T13:52:08;44.78;;;31.42;;
60665;SDS011;59128;44.642;21.188;2023-11-22T13:54:34;35.58;;;26.25;;
60665;SDS011;59128;44.642;21.188;2023-11-22T13:57:04;23.75;;;18.42;;
60665;SDS011;59128;44.642;21.188;2023-11-22T13:59:30;18.50;;;16.50;;
60665;SDS011;59128;44.642;21.188;2023-11-22T14:01:56;18.15;;;15.75;;
60665;SDS011;59128;44.642;21.188;2023-11-22T14:04:22;18.20;;;16.13;;
60665;SDS011;59128;44.642;21.188;2023-11-22T14:06:49;19.45;;;15.23;;
60665;SDS011;59128;44.642;21.188;2023-11-22T14:09:15;17.40;;;15.37;;
60665;SDS011;59128;44.642;21.188;2023-11-22T14:11:41;17.02;;;15.15;;
60665;SDS011;59128;44.642;21.188;2023-11-22T14:14:07;18.02;;;15.32;;
60665;SDS011;59128;44.642;21.188;2023-11-22T14:16:34;18.60;;;16.27;;
60665;SDS011;59128;44.642;21.188;2023-11-22T14:19:03;18.23;;;16.08;;